TimeCDT,TemperatureF,Dew PointF,Humidity,Sea Level PressureIn,VisibilityMPH,Wind Direction,Wind SpeedMPH,Gust SpeedMPH,PrecipitationIn,Events,Conditions,WindDirDegrees,DateUTC
12:53 AM,66.9,62.1,84,29.97,10.0,East,5.8,-,N/A,,Mostly Cloudy,90,2013-03-20 05:53:00
1:53 AM,68.0,62.1,81,30.00,10.0,NE,12.7,-,N/A,,Overcast,40,2013-03-20 06:53:00
2:53 AM,66.9,61.0,81,30.04,10.0,NE,16.1,-,0.00,,Overcast,50,2013-03-20 07:53:00
3:53 AM,66.0,45.0,47,30.03,10.0,NE,19.6,25.3,0.00,Rain,Light Rain,40,2013-03-20 08:53:00
4:53 AM,63.0,43.0,48,30.08,10.0,NNE,18.4,25.3,0.00,,Overcast,20,2013-03-20 09:53:00
5:53 AM,63.0,43.0,48,30.10,10.0,NE,19.6,27.6,N/A,,Overcast,40,2013-03-20 10:53:00
6:53 AM,59.0,50.0,72,30.10,10.0,ENE,16.1,23.0,0.02,,Overcast,60,2013-03-20 11:53:00
7:15 AM,60.8,50.0,68,30.14,10.0,NE,10.4,-,N/A,Thunderstorm,Thunderstorm,40,2013-03-20 12:15:00
7:53 AM,57.9,52.0,81,30.11,10.0,SE,11.5,-,0.09,Rain,Light Rain,130,2013-03-20 12:53:00
8:53 AM,60.1,54.0,80,30.15,10.0,NNE,10.4,-,0.00,,Partly Cloudy,30,2013-03-20 13:53:00
9:53 AM,60.1,54.0,80,30.18,10.0,North,17.3,-,N/A,,Scattered Clouds,10,2013-03-20 14:53:00
10:04 AM,60.8,53.6,77,30.16,10.0,North,15.0,-,N/A,,Mostly Cloudy,360,2013-03-20 15:04:00
10:38 AM,60.8,53.6,77,30.18,10.0,NNE,17.3,-,N/A,,Mostly Cloudy,20,2013-03-20 15:38:00
10:53 AM,60.1,52.0,75,30.19,10.0,NNE,19.6,-,N/A,,Overcast,20,2013-03-20 15:53:00
11:16 AM,62.6,53.6,72,30.18,10.0,NNE,18.4,-,N/A,,Scattered Clouds,30,2013-03-20 16:16:00
11:53 AM,64.0,52.0,65,30.19,10.0,NNE,16.1,-,N/A,,Scattered Clouds,20,2013-03-20 16:53:00
12:53 PM,68.0,51.1,55,30.18,10.0,NE,18.4,24.2,N/A,,Partly Cloudy,40,2013-03-20 17:53:00
1:53 PM,72.0,46.9,41,30.15,10.0,NE,15.0,24.2,N/A,,Clear,40,2013-03-20 18:53:00
2:53 PM,73.9,42.1,32,30.12,10.0,NNE,18.4,23.0,N/A,,Clear,20,2013-03-20 19:53:00
3:53 PM,75.9,37.0,24,30.09,10.0,NNE,17.3,24.2,N/A,,Partly Cloudy,30,2013-03-20 20:53:00
4:53 PM,75.0,35.1,23,30.09,10.0,NE,12.7,20.7,N/A,,Partly Cloudy,50,2013-03-20 21:53:00
5:53 PM,75.0,33.1,22,30.07,10.0,NE,9.2,-,N/A,,Partly Cloudy,40,2013-03-20 22:53:00
6:53 PM,72.0,33.1,24,30.07,10.0,ENE,9.2,-,N/A,,Scattered Clouds,70,2013-03-20 23:53:00
7:53 PM,66.9,35.1,31,30.07,10.0,NE,6.9,-,N/A,,Scattered Clouds,50,2013-03-21 00:53:00
8:53 PM,66.0,37.9,36,30.07,10.0,ESE,4.6,-,N/A,,Partly Cloudy,110,2013-03-21 01:53:00
9:53 PM,62.1,45.0,53,30.09,10.0,SSE,5.8,-,N/A,,Scattered Clouds,160,2013-03-21 02:53:00
10:53 PM,60.1,50.0,69,30.08,10.0,Calm,Calm,-,N/A,,Mostly Cloudy,0,2013-03-21 03:53:00
11:53 PM,57.0,50.0,77,30.07,10.0,Calm,Calm,-,N/A,,Mostly Cloudy,0,2013-03-21 04:53:00